createdAt,value
2022-11-02T00:00:21.168Z,1011.13
2022-11-02T00:01:21.226Z,1011.11
2022-11-02T00:02:21.147Z,1011.12
2022-11-02T00:03:21.048Z,1011.12
2022-11-02T00:04:21.021Z,1011.14
2022-11-02T00:05:20.966Z,1011.40
2022-11-02T00:06:20.938Z,1011.16
2022-11-02T00:07:20.902Z,1011.12
2022-11-02T00:08:20.848Z,1011.42
2022-11-02T00:09:20.810Z,1011.11
2022-11-02T00:10:20.767Z,1011.12
2022-11-02T00:11:20.730Z,1011.45
2022-11-02T00:12:20.692Z,1011.15
2022-11-02T00:13:20.661Z,1011.42
2022-11-02T00:14:20.608Z,1011.15
2022-11-02T00:15:20.566Z,1011.20
2022-11-02T00:16:20.531Z,1011.16
2022-11-02T00:17:20.488Z,1011.31
2022-11-02T00:18:20.454Z,1011.53
2022-11-02T00:19:20.421Z,1011.27
2022-11-02T00:20:20.368Z,1011.19
2022-11-02T00:21:20.328Z,1011.53
2022-11-02T00:22:20.287Z,1011.54
2022-11-02T00:23:20.246Z,1011.54
2022-11-02T00:24:20.218Z,1011.16
2022-11-02T00:25:20.163Z,1011.12
2022-11-02T00:26:20.126Z,1011.15
2022-11-02T00:27:20.086Z,1011.19
2022-11-02T00:28:20.090Z,1011.11
2022-11-02T00:29:20.006Z,1011.14
2022-11-02T00:30:19.991Z,1011.30
2022-11-02T00:31:19.927Z,1011.10
2022-11-02T00:32:19.887Z,1011.14
2022-11-02T00:33:19.842Z,1011.44
2022-11-02T00:34:19.823Z,1011.45
2022-11-02T00:35:19.774Z,1011.44
2022-11-02T00:36:19.747Z,1011.43
2022-11-02T00:37:19.711Z,1011.44
2022-11-02T00:38:19.646Z,1011.43
2022-11-02T00:39:19.603Z,1011.47
2022-11-02T00:40:19.566Z,1011.12
2022-11-02T00:41:19.519Z,1011.17
2022-11-02T00:42:19.513Z,1011.48
2022-11-02T00:43:19.451Z,1011.22
2022-11-02T00:44:19.402Z,1011.11
2022-11-02T00:45:19.362Z,1011.49
2022-11-02T00:46:19.320Z,1011.48
2022-11-02T00:47:19.316Z,1011.13
2022-11-02T00:48:19.256Z,1011.15
2022-11-02T00:49:19.205Z,1011.10
2022-11-02T00:50:19.170Z,1011.47
2022-11-02T00:51:19.122Z,1011.15
2022-11-02T00:52:19.083Z,1011.15
2022-11-02T00:53:19.043Z,1011.52
2022-11-02T00:54:19.019Z,1011.52
2022-11-02T00:55:18.964Z,1011.50
2022-11-02T00:56:18.935Z,1011.16
2022-11-02T00:57:18.879Z,1011.11
2022-11-02T00:58:18.840Z,1011.12
2022-11-02T00:59:18.824Z,1011.14
2022-11-02T01:00:18.786Z,1011.35
2022-11-02T01:01:18.819Z,1011.14
2022-11-02T01:02:18.883Z,1011.10
2022-11-02T01:03:18.642Z,1011.12
2022-11-02T01:04:18.597Z,1011.18
2022-11-02T01:05:18.576Z,1011.18
2022-11-02T01:06:18.520Z,1011.15
2022-11-02T01:07:18.484Z,1011.15
2022-11-02T01:08:18.443Z,1011.12
2022-11-02T01:09:18.401Z,1011.19
2022-11-02T01:10:18.365Z,1011.23
2022-11-02T01:11:18.331Z,1011.57
2022-11-02T01:12:18.281Z,1011.19
2022-11-02T01:13:18.247Z,1011.20
2022-11-02T01:14:18.201Z,1011.22
2022-11-02T01:15:18.159Z,1011.26
2022-11-02T01:16:18.149Z,1011.28
2022-11-02T01:17:18.079Z,1011.27
2022-11-02T01:18:18.053Z,1011.27
2022-11-02T01:19:18.000Z,1011.30
2022-11-02T01:20:17.959Z,1011.36
2022-11-02T01:21:17.921Z,1011.24
2022-11-02T01:22:17.878Z,1011.25
2022-11-02T01:23:17.840Z,1011.27
2022-11-02T01:24:17.812Z,1011.28
2022-11-02T01:25:17.768Z,1011.28
2022-11-02T01:26:17.763Z,1011.42
2022-11-02T01:27:17.679Z,1011.25
2022-11-02T01:28:17.639Z,1011.21
2022-11-02T01:29:17.599Z,1011.22
2022-11-02T01:30:17.571Z,1011.22
2022-11-02T01:31:17.520Z,1011.18
2022-11-02T01:32:17.480Z,1011.21
2022-11-02T01:33:17.445Z,1011.21
2022-11-02T01:34:17.397Z,1011.20
2022-11-02T01:35:17.363Z,1011.19
2022-11-02T01:36:17.414Z,1011.20
2022-11-02T01:37:17.280Z,1011.21
2022-11-02T01:38:17.240Z,1011.16
2022-11-02T01:39:17.198Z,1011.19
2022-11-02T01:40:17.158Z,1011.20
2022-11-02T01:41:17.124Z,1011.24
2022-11-02T01:42:17.087Z,1011.22
2022-11-02T01:43:17.045Z,1011.24
2022-11-02T01:44:17.000Z,1011.24
2022-11-02T01:45:16.960Z,1011.21
2022-11-02T01:46:16.917Z,1011.21
2022-11-02T01:47:16.894Z,1011.22
2022-11-02T01:48:16.841Z,1011.19
2022-11-02T01:49:16.799Z,1011.21
2022-11-02T01:50:16.755Z,1011.20
2022-11-02T01:51:16.793Z,1011.27
2022-11-02T01:52:16.690Z,1011.62
2022-11-02T01:53:16.655Z,1011.19
2022-11-02T01:54:16.599Z,1011.24
2022-11-02T01:55:16.579Z,1011.24
2022-11-02T01:56:16.600Z,1011.23
2022-11-02T01:57:16.480Z,1011.23
2022-11-02T01:58:16.455Z,1011.24
2022-11-02T01:59:16.412Z,1011.29
2022-11-02T02:00:16.362Z,1011.27
2022-11-02T02:01:16.513Z,1011.26
2022-11-02T02:02:16.340Z,1011.28
2022-11-02T02:03:16.243Z,1011.28
2022-11-02T02:04:16.217Z,1011.28
2022-11-02T02:05:16.173Z,1011.30
2022-11-02T02:06:16.124Z,1011.32
2022-11-02T02:07:16.091Z,1011.24
2022-11-02T02:08:16.057Z,1011.24
2022-11-02T02:09:16.006Z,1011.29
2022-11-02T02:10:15.968Z,1011.28
2022-11-02T02:11:15.938Z,1011.39
2022-11-02T02:12:15.883Z,1011.28
2022-11-02T02:13:15.845Z,1011.26
2022-11-02T02:14:15.802Z,1011.25
2022-11-02T02:15:15.766Z,1011.30
2022-11-02T02:16:15.726Z,1011.29
2022-11-02T02:17:15.698Z,1011.65
2022-11-02T02:18:15.645Z,1011.39
2022-11-02T02:19:15.606Z,1011.31
2022-11-02T02:20:15.566Z,1011.45
2022-11-02T02:21:15.525Z,1011.28
2022-11-02T02:22:15.502Z,1011.27
2022-11-02T02:23:15.456Z,1011.28
2022-11-02T02:24:15.408Z,1011.24
2022-11-02T02:25:15.374Z,1011.60
2022-11-02T02:26:15.324Z,1011.63
2022-11-02T02:27:15.310Z,1011.61
2022-11-02T02:28:15.254Z,1011.28
2022-11-02T02:29:15.210Z,1011.56
2022-11-02T02:30:15.170Z,1011.55
2022-11-02T02:31:15.129Z,1011.48
2022-11-02T02:32:15.090Z,1011.52
2022-11-02T02:33:15.070Z,1011.59
2022-11-02T02:34:15.029Z,1011.27
2022-11-02T02:35:14.972Z,1011.32
2022-11-02T02:36:14.932Z,1011.22
2022-11-02T02:37:14.891Z,1011.29
2022-11-02T02:38:14.848Z,1011.25
2022-11-02T02:39:14.830Z,1011.33
2022-11-02T02:40:14.771Z,1011.62
2022-11-02T02:41:14.733Z,1011.62
2022-11-02T02:42:14.696Z,1011.30
2022-11-02T02:43:15.632Z,1011.56
2022-11-02T02:44:14.619Z,1011.28
2022-11-02T02:45:14.578Z,1011.62
2022-11-02T02:46:14.528Z,1011.29
2022-11-02T02:47:14.494Z,1011.61
2022-11-02T02:48:14.449Z,1011.29
2022-11-02T02:49:14.410Z,1011.27
2022-11-02T02:50:14.379Z,1011.26
2022-11-02T02:51:14.331Z,1011.25
2022-11-02T02:52:14.290Z,1011.27
2022-11-02T02:53:14.260Z,1011.29
2022-11-02T02:54:14.209Z,1011.26
2022-11-02T02:55:14.182Z,1011.61
2022-11-02T02:56:14.128Z,1011.61
2022-11-02T02:57:14.089Z,1011.28
2022-11-02T02:58:14.048Z,1011.34
2022-11-02T02:59:14.013Z,1011.34
2022-11-02T03:00:14.018Z,1011.28
2022-11-02T03:01:13.997Z,1011.30
2022-11-02T03:02:14.043Z,1011.32
2022-11-02T03:03:13.852Z,1011.33
2022-11-02T03:04:13.811Z,1011.31
2022-11-02T03:05:13.771Z,1011.35
2022-11-02T03:06:13.741Z,1011.42
2022-11-02T03:07:13.690Z,1011.38
2022-11-02T03:08:13.655Z,1011.37
2022-11-02T03:09:13.612Z,1011.35
2022-11-02T03:10:13.571Z,1011.71
2022-11-02T03:11:13.530Z,1011.38
2022-11-02T03:12:13.502Z,1011.39
2022-11-02T03:13:13.449Z,1011.41
2022-11-02T03:14:13.409Z,1011.43
2022-11-02T03:15:13.368Z,1011.41
2022-11-02T03:16:13.329Z,1011.40
2022-11-02T03:17:13.289Z,1011.43
2022-11-02T03:19:45.287Z,1011.35
2022-11-02T03:20:45.242Z,1011.39
2022-11-02T03:21:45.200Z,1011.45
2022-11-02T03:22:45.157Z,1011.45
2022-11-02T03:23:45.130Z,1011.48
2022-11-02T03:24:45.082Z,1011.51
2022-11-02T03:25:45.037Z,1011.50
2022-11-02T03:26:44.997Z,1011.52
2022-11-02T03:27:44.957Z,1011.46
2022-11-02T03:28:44.931Z,1011.53
2022-11-02T03:29:44.880Z,1011.59
2022-11-02T03:30:44.837Z,1011.57
2022-11-02T03:31:44.797Z,1011.60
2022-11-02T03:32:44.756Z,1011.61
2022-11-02T03:33:44.716Z,1011.68
2022-11-02T03:34:44.685Z,1011.66
2022-11-02T03:35:44.636Z,1011.67
2022-11-02T03:36:44.594Z,1011.64
2022-11-02T03:37:44.556Z,1011.62
2022-11-02T03:38:44.515Z,1011.69
2022-11-02T03:39:44.510Z,1011.65
2022-11-02T03:40:44.434Z,1011.64
2022-11-02T03:41:44.395Z,1011.67
2022-11-02T03:42:44.352Z,1012.02
2022-11-02T03:43:44.313Z,1011.69
2022-11-02T03:44:44.272Z,1011.73
2022-11-02T03:45:44.243Z,1011.75
2022-11-02T03:46:44.195Z,1011.78
2022-11-02T03:47:44.151Z,1011.79
2022-11-02T03:48:44.113Z,1011.77
2022-11-02T03:49:44.071Z,1011.83
2022-11-02T03:50:44.049Z,1011.75
2022-11-02T03:51:44.001Z,1011.81
2022-11-02T03:52:43.955Z,1011.81
2022-11-02T03:53:43.912Z,1011.84
2022-11-02T03:54:43.871Z,1011.84
2022-11-02T03:55:43.831Z,1011.84
2022-11-02T03:56:43.804Z,1011.81
2022-11-02T03:57:43.751Z,1011.86
2022-11-02T03:58:43.714Z,1011.84
2022-11-02T03:59:43.671Z,1011.85
2022-11-02T04:00:43.635Z,1011.86
2022-11-02T04:01:43.656Z,1011.95
2022-11-02T04:02:43.592Z,1011.94
2022-11-02T04:03:43.512Z,1011.94
2022-11-02T04:04:43.473Z,1012.01
2022-11-02T04:05:43.432Z,1012.01
2022-11-02T04:06:43.392Z,1011.98
2022-11-02T04:07:43.363Z,1012.07
2022-11-02T04:08:43.323Z,1012.04
2022-11-02T04:09:43.270Z,1012.07
2022-11-02T04:10:43.229Z,1012.13
2022-11-02T04:11:43.191Z,1012.09
2022-11-02T04:12:43.151Z,1012.12
2022-11-02T04:13:43.110Z,1012.10
2022-11-02T04:14:43.085Z,1012.16
2022-11-02T04:15:43.030Z,1012.06
2022-11-02T04:16:42.990Z,1012.16
2022-11-02T04:17:42.947Z,1012.17
2022-11-02T04:18:42.910Z,1012.21
2022-11-02T04:19:45.558Z,1012.22
2022-11-02T04:20:42.829Z,1012.21
2022-11-02T04:21:42.789Z,1012.20
2022-11-02T04:22:42.748Z,1012.22
2022-11-02T04:23:42.714Z,1012.26
2022-11-02T04:24:42.681Z,1012.26
2022-11-02T04:25:42.627Z,1012.31
2022-11-02T04:26:42.585Z,1012.25
2022-11-02T04:27:42.547Z,1012.65
2022-11-02T04:28:42.510Z,1012.26
2022-11-02T04:29:42.466Z,1012.59
2022-11-02T04:30:42.440Z,1012.28
2022-11-02T04:31:42.386Z,1012.34
2022-11-02T04:32:42.347Z,1012.47
2022-11-02T04:33:42.307Z,1012.32
2022-11-02T04:34:42.275Z,1012.33
2022-11-02T04:35:42.227Z,1012.64
2022-11-02T04:36:42.198Z,1012.67
2022-11-02T04:37:42.151Z,1012.46
2022-11-02T04:38:42.120Z,1012.65
2022-11-02T04:39:42.064Z,1012.31
2022-11-02T04:40:42.025Z,1012.76
2022-11-02T04:41:41.994Z,1012.79
2022-11-02T04:42:41.953Z,1012.73
2022-11-02T04:43:41.966Z,1012.35
2022-11-02T04:44:41.864Z,1012.74
2022-11-02T04:45:41.827Z,1012.78
2022-11-02T04:46:41.787Z,1012.86
2022-11-02T04:47:41.744Z,1012.87
2022-11-02T04:48:41.705Z,1012.88
2022-11-02T04:49:41.677Z,1012.90
2022-11-02T04:50:41.628Z,1012.88
2022-11-02T04:51:47.147Z,1012.86
2022-11-02T04:52:41.544Z,1012.51
2022-11-02T04:53:41.502Z,1012.56
2022-11-02T04:54:41.471Z,1012.52
2022-11-02T04:55:41.434Z,1012.62
2022-11-02T04:56:41.387Z,1012.60
2022-11-02T04:58:41.303Z,1012.66
2022-11-02T04:59:41.259Z,1012.59
2022-11-02T05:00:41.223Z,1012.59
2022-11-02T05:01:41.321Z,1013.06
2022-11-02T05:02:41.216Z,1012.82
2022-11-02T05:03:41.103Z,1013.02
2022-11-02T05:04:41.061Z,1012.78
2022-11-02T05:05:41.022Z,1012.77
2022-11-02T05:06:40.984Z,1012.84
2022-11-02T05:07:40.954Z,1012.77
2022-11-02T05:08:40.903Z,1012.80
2022-11-02T05:09:40.867Z,1012.92
2022-11-02T05:10:40.820Z,1013.05
2022-11-02T05:11:40.792Z,1013.00
2022-11-02T05:12:40.737Z,1012.79
2022-11-02T05:13:40.823Z,1013.12
2022-11-02T05:14:40.658Z,1013.14
2022-11-02T05:15:40.625Z,1012.83
2022-11-02T05:16:40.578Z,1012.81
2022-11-02T05:17:40.535Z,1012.65
2022-11-02T05:18:40.511Z,1013.16
2022-11-02T05:19:40.457Z,1012.84
2022-11-02T05:20:40.416Z,1012.84
2022-11-02T05:21:40.377Z,1012.91
2022-11-02T05:22:40.339Z,1012.87
2022-11-02T05:23:40.295Z,1012.98
2022-11-02T05:24:40.267Z,1013.19
2022-11-02T05:25:40.219Z,1012.84
2022-11-02T05:26:40.176Z,1012.88
2022-11-02T05:27:40.136Z,1012.82
2022-11-02T05:28:40.103Z,1013.19
2022-11-02T05:29:40.054Z,1012.89
2022-11-02T05:30:40.028Z,1012.93
2022-11-02T05:31:39.974Z,1012.85
2022-11-02T05:32:39.935Z,1012.96
2022-11-02T05:33:39.893Z,1012.98
2022-11-02T05:34:39.856Z,1012.92
2022-11-02T05:35:39.824Z,1013.22
2022-11-02T05:36:39.773Z,1013.01
2022-11-02T05:37:39.748Z,1012.92
2022-11-02T05:39:39.652Z,1013.24
2022-11-02T05:40:39.614Z,1013.00
2022-11-02T05:41:39.574Z,1012.97
2022-11-02T05:42:39.532Z,1012.98
2022-11-02T05:43:39.502Z,1012.99
2022-11-02T05:44:39.452Z,1012.94
2022-11-02T05:45:39.412Z,1013.15
2022-11-02T05:46:39.372Z,1013.01
2022-11-02T05:47:39.332Z,1013.03
2022-11-02T05:48:39.293Z,1013.00
2022-11-02T05:49:39.269Z,1013.02
2022-11-02T05:50:39.215Z,1013.06
2022-11-02T05:51:39.171Z,1013.07
2022-11-02T05:52:39.134Z,1013.08
2022-11-02T05:53:39.092Z,1013.07
2022-11-02T05:54:39.053Z,1013.15
2022-11-02T05:55:39.022Z,1013.13
2022-11-02T05:56:38.976Z,1013.14
2022-11-02T05:57:38.932Z,1013.23
2022-11-02T05:58:38.929Z,1013.20
2022-11-02T05:59:38.855Z,1013.17
2022-11-02T06:00:38.813Z,1013.53
2022-11-02T06:01:38.828Z,1013.27
2022-11-02T06:02:38.739Z,1013.26
2022-11-02T06:03:38.691Z,1013.25
2022-11-02T06:04:38.652Z,1013.64
2022-11-02T06:05:38.651Z,1013.63
2022-11-02T06:06:38.584Z,1013.27
2022-11-02T06:07:38.540Z,1013.28
2022-11-02T06:08:38.495Z,1013.58
2022-11-02T06:09:38.458Z,1013.28
2022-11-02T06:10:38.410Z,1013.29
2022-11-02T06:11:38.370Z,1013.27
2022-11-02T06:12:38.352Z,1013.67
2022-11-02T06:13:38.291Z,1013.33
2022-11-02T06:14:38.255Z,1013.68
2022-11-02T06:15:38.221Z,1013.37
2022-11-02T06:16:38.174Z,1013.71
2022-11-02T06:17:38.136Z,1013.76
2022-11-02T06:18:38.105Z,1013.44
2022-11-02T06:19:38.055Z,1013.36
2022-11-02T06:20:38.008Z,1013.42
2022-11-02T06:21:37.969Z,1013.46
2022-11-02T06:22:37.928Z,1013.82
2022-11-02T06:23:37.890Z,1013.72
2022-11-02T06:24:37.856Z,1013.41
2022-11-02T06:25:37.811Z,1013.45
2022-11-02T06:26:37.767Z,1013.43
2022-11-02T06:27:42.161Z,1013.42
2022-11-02T06:28:37.688Z,1013.46
2022-11-02T06:29:37.658Z,1013.83
2022-11-02T06:30:37.611Z,1013.52
2022-11-02T06:31:37.567Z,1013.86
2022-11-02T06:32:37.526Z,1013.53
2022-11-02T06:33:37.490Z,1013.94
2022-11-02T06:34:37.451Z,1013.52
2022-11-02T06:35:37.415Z,1014.01
2022-11-02T06:36:37.372Z,1013.64
2022-11-02T06:37:37.325Z,1013.62
2022-11-02T06:38:37.283Z,1013.72
2022-11-02T06:40:37.206Z,1013.73
2022-11-02T06:41:37.174Z,1013.77
2022-11-02T06:42:44.858Z,1013.81
2022-11-02T06:43:37.084Z,1013.85
2022-11-02T06:44:37.043Z,1013.85
2022-11-02T06:45:37.003Z,1013.86
2022-11-02T06:46:36.965Z,1013.94
2022-11-02T06:47:36.937Z,1013.91
2022-11-02T06:48:36.882Z,1013.94
2022-11-02T06:49:36.844Z,1013.94
2022-11-02T06:50:36.797Z,1013.99
2022-11-02T06:51:36.761Z,1014.01
2022-11-02T06:52:36.728Z,1013.98
2022-11-02T06:53:36.679Z,1014.05
2022-11-02T06:54:36.638Z,1014.08
2022-11-02T06:55:36.601Z,1014.42
2022-11-02T06:56:36.554Z,1014.44
2022-11-02T06:57:36.516Z,1014.48
2022-11-02T06:58:36.490Z,1014.15
2022-11-02T06:59:36.437Z,1014.32
2022-11-02T07:00:36.479Z,1014.36
2022-11-02T07:01:36.456Z,1014.21
2022-11-02T07:02:36.392Z,1014.23
2022-11-02T07:03:36.281Z,1014.61
2022-11-02T07:04:36.248Z,1014.63
2022-11-02T07:05:36.195Z,1014.55
2022-11-02T07:06:36.162Z,1014.35
2022-11-02T07:07:36.114Z,1014.35
2022-11-02T07:08:36.072Z,1014.44
2022-11-02T07:09:36.035Z,1014.80
2022-11-02T07:10:35.992Z,1014.50
2022-11-02T07:11:35.954Z,1014.87
2022-11-02T07:12:35.924Z,1014.80
2022-11-02T07:13:35.874Z,1014.90
2022-11-02T07:14:35.831Z,1014.89
2022-11-02T07:15:35.795Z,1014.58
2022-11-02T07:16:35.755Z,1014.59
2022-11-02T07:17:35.713Z,1015.00
2022-11-02T07:18:35.681Z,1014.61
2022-11-02T07:19:35.632Z,1014.67
2022-11-02T07:20:35.603Z,1014.71
2022-11-02T07:21:35.562Z,1014.69
2022-11-02T07:22:35.512Z,1014.70
2022-11-02T07:23:35.472Z,1014.78
2022-11-02T07:24:35.433Z,1014.78
2022-11-02T07:25:35.416Z,1014.74
2022-11-02T07:26:35.364Z,1014.80
2022-11-02T07:27:35.312Z,1014.84
2022-11-02T07:28:35.270Z,1014.89
2022-11-02T07:29:35.247Z,1015.14
2022-11-02T07:30:35.219Z,1015.24
2022-11-02T07:31:35.183Z,1015.29
2022-11-02T07:32:35.110Z,1015.10
2022-11-02T07:33:35.074Z,1015.37
2022-11-02T07:34:35.031Z,1015.25
2022-11-02T07:35:34.990Z,1015.03
2022-11-02T07:36:34.950Z,1015.11
2022-11-02T07:37:34.923Z,1015.14
2022-11-02T07:38:34.871Z,1015.18
2022-11-02T07:39:34.831Z,1015.49
2022-11-02T07:40:34.789Z,1015.45
2022-11-02T07:41:34.755Z,1015.27
2022-11-02T07:42:34.728Z,1015.29
2022-11-02T07:43:35.933Z,1015.32
2022-11-02T07:44:34.630Z,1015.58
2022-11-02T07:45:34.593Z,1015.35
2022-11-02T07:46:34.555Z,1015.77
2022-11-02T07:47:34.515Z,1015.74
2022-11-02T07:48:34.482Z,1015.48
2022-11-02T07:49:34.435Z,1015.61
2022-11-02T07:50:34.392Z,1015.70
2022-11-02T07:51:34.353Z,1015.32
2022-11-02T07:52:34.322Z,1015.38
2022-11-02T07:53:34.286Z,1015.47
2022-11-02T07:54:34.234Z,1015.52
2022-11-02T07:55:34.201Z,1015.56
2022-11-02T07:56:34.160Z,1015.67
2022-11-02T07:57:34.120Z,1016.15
2022-11-02T07:58:34.082Z,1015.66
2022-11-02T07:59:34.057Z,1016.19
2022-11-02T08:00:33.998Z,1016.26
2022-11-02T08:01:34.999Z,1016.34
2022-11-02T08:02:33.965Z,1016.01
2022-11-02T08:03:33.986Z,1015.88
2022-11-02T08:04:33.843Z,1016.02
2022-11-02T08:05:33.842Z,1016.00
2022-11-02T08:06:33.762Z,1015.98
2022-11-02T08:07:33.726Z,1016.09
2022-11-02T08:08:33.686Z,1016.16
2022-11-02T08:09:33.650Z,1016.15
2022-11-02T08:10:37.040Z,1016.21
2022-11-02T08:11:33.580Z,1016.18
2022-11-02T08:12:33.533Z,1015.89
2022-11-02T08:13:33.497Z,1016.33
2022-11-02T08:14:33.457Z,1016.30
2022-11-02T08:15:33.419Z,1016.18
2022-11-02T08:16:33.396Z,1016.26
2022-11-02T08:17:33.344Z,1016.38
2022-11-02T08:18:33.305Z,1016.32
2022-11-02T08:19:33.275Z,1016.36
2022-11-02T08:20:33.228Z,1016.63
2022-11-02T08:21:33.201Z,1016.44
2022-11-02T08:22:33.166Z,1016.52
2022-11-02T08:23:33.121Z,1016.53
2022-11-02T08:24:33.087Z,1016.49
2022-11-02T08:25:33.060Z,1016.85
2022-11-02T08:26:33.009Z,1016.51
2022-11-02T08:27:32.980Z,1016.52
2022-11-02T08:28:32.955Z,1016.72
2022-11-02T08:29:32.906Z,1016.69
2022-11-02T08:30:32.873Z,1016.55
2022-11-02T08:31:32.834Z,1016.56
2022-11-02T08:32:32.796Z,1016.35
2022-11-02T08:33:32.760Z,1016.62
2022-11-02T08:34:32.732Z,1016.86
2022-11-02T08:35:32.685Z,1016.96
2022-11-02T08:36:32.648Z,1016.55
2022-11-02T08:37:32.621Z,1017.01
2022-11-02T08:38:32.581Z,1016.62
2022-11-02T08:39:32.548Z,1017.02
2022-11-02T08:40:32.519Z,1016.61
2022-11-02T08:41:32.495Z,1016.60
2022-11-02T08:42:32.437Z,1016.46
2022-11-02T08:43:32.405Z,1016.05
2022-11-02T08:44:32.382Z,1016.30
2022-11-02T08:45:48.014Z,1016.07
2022-11-02T08:46:32.297Z,1016.56
2022-11-02T08:47:32.265Z,1016.12
2022-11-02T08:48:32.228Z,1016.59
2022-11-02T08:49:32.196Z,1016.42
2022-11-02T08:50:32.168Z,1016.26
2022-11-02T08:51:32.124Z,1016.21
2022-11-02T08:52:34.595Z,1016.25
2022-11-02T08:53:32.055Z,1016.57
2022-11-02T08:54:32.016Z,1016.57
2022-11-02T08:55:31.985Z,1016.17
2022-11-02T08:56:31.959Z,1016.53
2022-11-02T08:57:31.913Z,1016.57
2022-11-02T08:58:31.877Z,1016.52
2022-11-02T08:59:31.853Z,1016.53
2022-11-02T09:00:31.806Z,1016.72
2022-11-02T09:01:31.872Z,1016.05
2022-11-02T09:02:31.812Z,1016.46
2022-11-02T09:03:31.700Z,1016.43
2022-11-02T09:04:31.665Z,1016.60
2022-11-02T09:05:31.647Z,1016.54
2022-11-02T09:06:31.592Z,1016.35
2022-11-02T09:07:31.559Z,1016.44
2022-11-02T09:08:31.564Z,1016.91
2022-11-02T09:09:31.488Z,1017.04
2022-11-02T09:10:31.452Z,1016.85
2022-11-02T09:11:31.417Z,1016.31
2022-11-02T09:12:31.382Z,1016.45
2022-11-02T09:13:31.410Z,1016.44
2022-11-02T09:14:31.361Z,1016.51
2022-11-02T09:15:31.277Z,1016.60
2022-11-02T09:16:31.243Z,1016.80
2022-11-02T09:17:31.216Z,1016.51
2022-11-02T09:18:31.213Z,1016.86
2022-11-02T09:19:38.251Z,1016.43
2022-11-02T09:20:31.109Z,1016.61
2022-11-02T09:21:31.066Z,1016.43
2022-11-02T09:22:31.041Z,1016.55
2022-11-02T09:23:30.994Z,1016.45
2022-11-02T09:24:30.956Z,1016.48
2022-11-02T09:25:30.942Z,1016.81
2022-11-02T09:26:31.002Z,1016.86
2022-11-02T09:27:30.858Z,1016.75
2022-11-02T09:28:30.818Z,1016.50
2022-11-02T09:29:30.785Z,1016.59
2022-11-02T09:30:30.752Z,1016.59
2022-11-02T09:31:30.729Z,1016.49
2022-11-02T09:32:30.679Z,1016.53
2022-11-02T09:33:30.651Z,1016.56
2022-11-02T09:34:30.603Z,1016.64
2022-11-02T09:35:30.577Z,1016.88
2022-11-02T09:36:30.550Z,1016.67
2022-11-02T09:37:30.518Z,1016.53
2022-11-02T09:38:30.466Z,1016.56
2022-11-02T09:39:30.432Z,1016.71
2022-11-02T09:40:30.395Z,1016.70
2022-11-02T09:41:30.374Z,1016.63
2022-11-02T09:42:30.323Z,1017.14
2022-11-02T09:43:32.619Z,1017.10
2022-11-02T09:44:30.255Z,1017.02
2022-11-02T09:45:30.223Z,1016.76
2022-11-02T09:46:30.180Z,1016.71
2022-11-02T09:48:30.535Z,1016.66
2022-11-02T09:49:30.074Z,1017.07
2022-11-02T09:50:30.055Z,1016.69
2022-11-02T09:51:30.006Z,1017.10
2022-11-02T09:52:29.965Z,1017.11
2022-11-02T09:53:29.947Z,1016.77
2022-11-02T09:54:29.898Z,1017.20
2022-11-02T09:55:29.861Z,1017.18
2022-11-02T09:56:29.827Z,1017.13
2022-11-02T09:57:29.789Z,1016.63
2022-11-02T09:58:29.752Z,1016.77
2022-11-02T09:59:29.731Z,1016.90
2022-11-02T10:00:29.683Z,1016.84
2022-11-02T10:01:29.712Z,1016.83
2022-11-02T10:02:29.674Z,1016.56
2022-11-02T10:03:29.579Z,1016.57
2022-11-02T10:04:29.554Z,1016.54
2022-11-02T10:05:29.510Z,1016.63
2022-11-02T10:06:29.478Z,1016.61
2022-11-02T10:07:29.438Z,1016.88
2022-11-02T10:08:29.400Z,1017.20
2022-11-02T10:09:29.365Z,1016.84
2022-11-02T10:10:29.344Z,1017.16
2022-11-02T10:11:29.331Z,1017.25
2022-11-02T10:12:29.259Z,1016.86
2022-11-02T10:13:29.225Z,1017.26
2022-11-02T10:14:29.208Z,1016.65
2022-11-02T10:15:29.154Z,1017.26
2022-11-02T10:16:29.125Z,1016.90
2022-11-02T10:17:29.083Z,1016.93
2022-11-02T10:18:29.049Z,1016.98
2022-11-02T10:19:30.513Z,1017.38
2022-11-02T10:20:28.975Z,1017.42
2022-11-02T10:21:28.951Z,1016.99
2022-11-02T10:22:28.907Z,1017.03
2022-11-02T10:23:28.873Z,1017.03
2022-11-02T10:24:28.848Z,1017.27
2022-11-02T10:25:28.805Z,1016.93
2022-11-02T10:26:28.763Z,1017.09
2022-11-02T10:27:28.728Z,1017.09
2022-11-02T10:28:28.790Z,1017.38
2022-11-02T10:29:28.669Z,1017.02
2022-11-02T10:30:28.628Z,1017.02
2022-11-02T10:31:28.590Z,1017.05
2022-11-02T10:32:28.626Z,1017.10
2022-11-02T10:33:28.521Z,1016.97
2022-11-02T10:34:28.488Z,1017.03
2022-11-02T10:35:41.223Z,1017.06
2022-11-02T10:36:28.419Z,1017.12
2022-11-02T10:37:28.399Z,1017.47
2022-11-02T10:38:28.350Z,1016.90
2022-11-02T10:39:28.317Z,1017.10
2022-11-02T10:40:28.283Z,1017.47
2022-11-02T10:41:28.248Z,1017.43
2022-11-02T10:42:28.214Z,1017.08
2022-11-02T10:43:28.188Z,1017.00
2022-11-02T10:44:28.156Z,1017.12
2022-11-02T10:45:28.107Z,1017.15
2022-11-02T10:46:28.076Z,1017.32
2022-11-02T10:47:28.040Z,1017.53
2022-11-02T10:48:28.007Z,1017.15
2022-11-02T10:49:27.982Z,1017.12
2022-11-02T10:50:27.938Z,1017.17
2022-11-02T10:51:27.905Z,1017.45
2022-11-02T10:52:27.870Z,1017.26
2022-11-02T10:53:40.515Z,1017.12
2022-11-02T10:54:33.307Z,1017.11
2022-11-02T10:55:27.772Z,1017.48
2022-11-02T10:56:27.732Z,1017.14
2022-11-02T10:57:27.694Z,1017.48
2022-11-02T10:58:27.661Z,1017.13
2022-11-02T10:59:27.626Z,1016.87
2022-11-02T11:00:27.646Z,1017.47
2022-11-02T11:01:27.714Z,1017.11
2022-11-02T11:02:27.524Z,1017.43
2022-11-02T11:03:27.490Z,1017.17
2022-11-02T11:04:27.460Z,1017.20
2022-11-02T11:05:27.421Z,1017.09
2022-11-02T11:06:27.385Z,1017.42
2022-11-02T11:07:27.359Z,1017.05
2022-11-02T11:08:27.315Z,1017.09
2022-11-02T11:09:27.280Z,1017.03
2022-11-02T11:10:27.243Z,1017.03
2022-11-02T11:11:27.210Z,1017.07
2022-11-02T11:12:27.202Z,1017.06
2022-11-02T11:16:27.039Z,1017.17
2022-11-02T11:19:42.351Z,1016.84
2022-11-02T11:20:26.909Z,1017.23
2022-11-02T11:21:26.869Z,1017.28
2022-11-02T11:22:26.855Z,1017.32
2022-11-02T11:23:26.799Z,1017.66
2022-11-02T11:24:26.799Z,1017.42
2022-11-02T11:25:28.290Z,1017.39
2022-11-02T11:26:26.694Z,1017.65
2022-11-02T11:27:26.657Z,1017.47
2022-11-02T11:28:26.652Z,1017.47
2022-11-02T11:29:26.590Z,1017.35
2022-11-02T11:30:58.523Z,1017.41
2022-11-02T11:31:26.536Z,1017.61
2022-11-02T11:32:30.191Z,1017.21
2022-11-02T11:33:26.468Z,1017.26
2022-11-02T11:34:26.425Z,1017.06
2022-11-02T11:35:26.383Z,1017.48
2022-11-02T11:37:26.315Z,1017.03
2022-11-02T11:38:26.302Z,1017.05
2022-11-02T11:39:26.264Z,1017.34
2022-11-02T11:40:26.218Z,1017.39
2022-11-02T11:41:26.173Z,1017.13
2022-11-02T11:42:26.153Z,1017.07
2022-11-02T11:43:26.106Z,1017.08
2022-11-02T11:44:26.071Z,1017.40
2022-11-02T11:45:26.079Z,1017.04
2022-11-02T11:46:26.005Z,1017.29
2022-11-02T11:47:25.974Z,1017.25
2022-11-02T11:48:25.947Z,1017.46
2022-11-02T11:49:41.489Z,1017.39
2022-11-02T11:50:29.584Z,1017.16
2022-11-02T11:51:26.278Z,1016.75
2022-11-02T11:52:31.246Z,1016.80
2022-11-02T11:53:25.770Z,1016.91
2022-11-02T11:54:25.724Z,1016.70
2022-11-02T11:55:25.685Z,1016.82
2022-11-02T11:56:25.652Z,1016.78
2022-11-02T11:57:25.678Z,1016.81
2022-11-02T11:58:25.579Z,1016.79
2022-11-02T11:59:25.560Z,1017.04
2022-11-02T12:00:25.509Z,1017.33
2022-11-02T12:01:25.554Z,1016.76
2022-11-02T12:02:25.626Z,1016.99
2022-11-02T12:03:25.453Z,1016.89
2022-11-02T12:04:25.376Z,1016.87
2022-11-02T12:05:25.349Z,1017.10
2022-11-02T12:06:25.291Z,1016.77
2022-11-02T12:07:25.257Z,1016.75
2022-11-02T12:08:25.228Z,1016.73
2022-11-02T12:09:25.195Z,1016.71
2022-11-02T12:10:25.150Z,1016.74
2022-11-02T12:11:25.128Z,1016.70
2022-11-02T12:12:25.077Z,1016.64
2022-11-02T12:13:25.038Z,1016.74
2022-11-02T12:14:25.004Z,1016.61
2022-11-02T12:15:24.965Z,1016.62
2022-11-02T12:16:24.936Z,1016.67